sensor_id;sensor_type;location;lat;lon;timestamp;P1;P2;P0
74426;PMS7003;62859;53.906;27.430;2023-06-10T00:01:40;2.7;2.7;1.7
74426;PMS7003;62859;53.906;27.430;2023-06-10T00:06:40;5;4.3;3
74426;PMS7003;62859;53.906;27.430;2023-06-10T00:11:50;4.3;4;3
74426;PMS7003;62859;53.906;27.430;2023-06-10T00:17:18;4.5;4;3
74426;PMS7003;62859;53.906;27.430;2023-06-10T00:21:40;3.7;3.3;2.3
74426;PMS7003;62859;53.906;27.430;2023-06-10T00:26:40;5;4.3;2.7
74426;PMS7003;62859;53.906;27.430;2023-06-10T00:32:02;4;4;2.7
74426;PMS7003;62859;53.906;27.430;2023-06-10T00:37:04;3;3;2
74426;PMS7003;62859;53.906;27.430;2023-06-10T00:41:46;4;3.3;2.3
74426;PMS7003;62859;53.906;27.430;2023-06-10T00:47:02;2.7;2.3;2
74426;PMS7003;62859;53.906;27.430;2023-06-10T00:51:50;3;3;2.7
74426;PMS7003;62859;53.906;27.430;2023-06-10T00:56:40;3.3;3.3;2.5
74426;PMS7003;62859;53.906;27.430;2023-06-10T01:01:50;3;2.3;1.3
74426;PMS7003;62859;53.906;27.430;2023-06-10T01:06:41;4;2.7;2
74426;PMS7003;62859;53.906;27.430;2023-06-10T01:12:08;3.3;3.3;2.3
74426;PMS7003;62859;53.906;27.430;2023-06-10T01:17:06;3.3;2.7;2.7
74426;PMS7003;62859;53.906;27.430;2023-06-10T01:21:56;4;3;2
74426;PMS7003;62859;53.906;27.430;2023-06-10T01:27:09;3.7;3.3;2.7
74426;PMS7003;62859;53.906;27.430;2023-06-10T01:32:26;3;2.8;2.5
74426;PMS7003;62859;53.906;27.430;2023-06-10T01:36:52;4;3;1.7
74426;PMS7003;62859;53.906;27.430;2023-06-10T01:41:40;3.7;3.3;2.3
74426;PMS7003;62859;53.906;27.430;2023-06-10T01:47:04;2.7;2.7;2
74426;PMS7003;62859;53.906;27.430;2023-06-10T01:51:40;3.5;3.3;2.8
74426;PMS7003;62859;53.906;27.430;2023-06-10T01:57:06;4.7;3.3;2.3
74426;PMS7003;62859;53.906;27.430;2023-06-10T02:01:40;3;2.7;2
74426;PMS7003;62859;53.906;27.430;2023-06-10T02:07:20;3.3;3;1.7
74426;PMS7003;62859;53.906;27.430;2023-06-10T02:12:12;2.5;2.3;1.8
74426;PMS7003;62859;53.906;27.430;2023-06-10T02:16:40;3.7;2.7;2.7
74426;PMS7003;62859;53.906;27.430;2023-06-10T02:21:58;2.7;2.7;2
74426;PMS7003;62859;53.906;27.430;2023-06-10T02:27:20;2.7;2.7;2.7
74426;PMS7003;62859;53.906;27.430;2023-06-10T02:31:54;2.5;2.5;2
74426;PMS7003;62859;53.906;27.430;2023-06-10T02:37:06;3.3;2.3;1.3
74426;PMS7003;62859;53.906;27.430;2023-06-10T02:42:14;2.3;2.3;2
74426;PMS7003;62859;53.906;27.430;2023-06-10T02:46:52;2.7;2.3;1.3
74426;PMS7003;62859;53.906;27.430;2023-06-10T02:51:40;3;2.8;2
74426;PMS7003;62859;53.906;27.430;2023-06-10T02:57:06;2.7;2.3;2.3
74426;PMS7003;62859;53.906;27.430;2023-06-10T03:01:56;3.7;2.7;1.7
74426;PMS7003;62859;53.906;27.430;2023-06-10T03:07:18;3.3;2.5;1.8
74426;PMS7003;62859;53.906;27.430;2023-06-10T03:11:52;3;1.7;1.3
74426;PMS7003;62859;53.906;27.430;2023-06-10T03:17:06;2.7;1.7;1.3
74426;PMS7003;62859;53.906;27.430;2023-06-10T03:21:57;2.7;2.3;2
74426;PMS7003;62859;53.906;27.430;2023-06-10T03:27:20;2.8;2.5;1.8
74426;PMS7003;62859;53.906;27.430;2023-06-10T03:31:52;7.7;5;4
74426;PMS7003;62859;53.906;27.430;2023-06-10T03:37:06;3.3;2.7;2
74426;PMS7003;62859;53.906;27.430;2023-06-10T03:41:44;2.7;1.7;1
74426;PMS7003;62859;53.906;27.430;2023-06-10T03:47:20;3.8;2.8;2
74426;PMS7003;62859;53.906;27.430;2023-06-10T03:51:40;2;2;1.3
74426;PMS7003;62859;53.906;27.430;2023-06-10T03:56:40;3;2.7;2.3
74426;PMS7003;62859;53.906;27.430;2023-06-10T04:02:26;2.7;2;1.7
74426;PMS7003;62859;53.906;27.430;2023-06-10T04:07:24;2.3;2.3;1.8
74426;PMS7003;62859;53.906;27.430;2023-06-10T04:11:40;2;2;1.7
74426;PMS7003;62859;53.906;27.430;2023-06-10T04:16:52;2.3;2;1.3
74426;PMS7003;62859;53.906;27.430;2023-06-10T04:22:12;2.7;2.7;1.7
74426;PMS7003;62859;53.906;27.430;2023-06-10T04:27:20;2;2;1.8
74426;PMS7003;62859;53.906;27.430;2023-06-10T04:31:54;2.3;1.7;1.7
74426;PMS7003;62859;53.906;27.430;2023-06-10T04:36:54;3;2.7;1.7
74426;PMS7003;62859;53.906;27.430;2023-06-10T04:41:44;3.3;2.7;2.3
74426;PMS7003;62859;53.906;27.430;2023-06-10T04:47:04;3;2.3;1.5
74426;PMS7003;62859;53.906;27.430;2023-06-10T04:52:06;3;3;2
74426;PMS7003;62859;53.906;27.430;2023-06-10T04:56:40;2.7;2;1.7
74426;PMS7003;62859;53.906;27.430;2023-06-10T05:01:56;3.5;3.5;2.3
74426;PMS7003;62859;53.906;27.430;2023-06-10T05:07:04;3;2.7;2.3
74426;PMS7003;62859;53.906;27.430;2023-06-10T05:11:40;4.7;4.3;3.3
74426;PMS7003;62859;53.906;27.430;2023-06-10T05:16:50;4.7;4.3;3.3
74426;PMS7003;62859;53.906;27.430;2023-06-10T05:21:52;4.3;3.5;3.3
74426;PMS7003;62859;53.906;27.430;2023-06-10T05:27:20;4.7;4;3
74426;PMS7003;62859;53.906;27.430;2023-06-10T05:32:14;3.7;3;2.3
74426;PMS7003;62859;53.906;27.430;2023-06-10T05:37:06;3.3;3.3;2.3
74426;PMS7003;62859;53.906;27.430;2023-06-10T05:41:40;3.3;3;2.5
74426;PMS7003;62859;53.906;27.430;2023-06-10T05:47:22;3;2.3;2
74426;PMS7003;62859;53.906;27.430;2023-06-10T05:52:06;3.7;3.7;2.3
74426;PMS7003;62859;53.906;27.430;2023-06-10T05:56:40;2.7;2.7;2
74426;PMS7003;62859;53.906;27.430;2023-06-10T06:02:12;4.3;4.3;2.5
74426;PMS7003;62859;53.906;27.430;2023-06-10T06:07:20;3.7;3;2.7
74426;PMS7003;62859;53.906;27.430;2023-06-10T06:12:24;5;4;3
74426;PMS7003;62859;53.906;27.430;2023-06-10T06:17:10;3.7;3.7;2.7
74426;PMS7003;62859;53.906;27.430;2023-06-10T06:22:10;3.8;3.8;3
74426;PMS7003;62859;53.906;27.430;2023-06-10T06:26:40;4.3;4;2.7
74426;PMS7003;62859;53.906;27.430;2023-06-10T06:32:24;4.7;3.7;2.3
74426;PMS7003;62859;53.906;27.430;2023-06-10T06:37:10;4.3;3.7;2
74426;PMS7003;62859;53.906;27.430;2023-06-10T06:42:08;3.8;3.8;2.8
74426;PMS7003;62859;53.906;27.430;2023-06-10T06:46:40;5.3;4.7;3.3
74426;PMS7003;62859;53.906;27.430;2023-06-10T06:52:24;4;4;3
74426;PMS7003;62859;53.906;27.430;2023-06-10T06:56:58;3.3;2.8;2
74426;PMS7003;62859;53.906;27.430;2023-06-10T07:02:08;5;4.7;3.7
74426;PMS7003;62859;53.906;27.430;2023-06-10T07:07:26;5;4;3
74426;PMS7003;62859;53.906;27.430;2023-06-10T07:12:24;4;3.7;2.3
74426;PMS7003;62859;53.906;27.430;2023-06-10T07:17:12;4;3.5;2.8
74426;PMS7003;62859;53.906;27.430;2023-06-10T07:22:08;4.7;3.7;2.7
74426;PMS7003;62859;53.906;27.430;2023-06-10T07:26:40;9;7.7;6.3
74426;PMS7003;62859;53.906;27.430;2023-06-10T07:32:24;6.7;6;5.3
74426;PMS7003;62859;53.906;27.430;2023-06-10T07:36:42;5.5;5;4.3
74426;PMS7003;62859;53.906;27.430;2023-06-10T07:42:08;6.3;4.7;3.3
74426;PMS7003;62859;53.906;27.430;2023-06-10T07:46:56;5;4;3
74426;PMS7003;62859;53.906;27.430;2023-06-10T07:52:26;4.7;4.7;4
74426;PMS7003;62859;53.906;27.430;2023-06-10T07:57:00;3.5;3.5;2.8
74426;PMS7003;62859;53.906;27.430;2023-06-10T08:01:56;4.3;4;2.7
74426;PMS7003;62859;53.906;27.430;2023-06-10T08:06:40;4.3;4.3;2.7
74426;PMS7003;62859;53.906;27.430;2023-06-10T08:12:24;4.7;3.7;3
74426;PMS7003;62859;53.906;27.430;2023-06-10T08:17:12;3.8;3.8;2.5
74426;PMS7003;62859;53.906;27.430;2023-06-10T08:22:08;5.7;5;2.7
74426;PMS7003;62859;53.906;27.430;2023-06-10T08:26:44;5;4.3;3.3
74426;PMS7003;62859;53.906;27.430;2023-06-10T08:32:26;4.5;3.8;3
74426;PMS7003;62859;53.906;27.430;2023-06-10T08:37:12;3.7;3.7;2.7
74426;PMS7003;62859;53.906;27.430;2023-06-10T08:42:11;4.7;4.7;3.3
74426;PMS7003;62859;53.906;27.430;2023-06-10T08:46:56;5;4.3;2.7
74426;PMS7003;62859;53.906;27.430;2023-06-10T08:52:26;4.8;3.8;2.5
74426;PMS7003;62859;53.906;27.430;2023-06-10T08:57:12;3.3;3.3;2.3
74426;PMS7003;62859;53.906;27.430;2023-06-10T09:02:08;4;4;3
74426;PMS7003;62859;53.906;27.430;2023-06-10T09:06:44;5;3;2
74426;PMS7003;62859;53.906;27.430;2023-06-10T09:12:26;6.5;5.8;4
74426;PMS7003;62859;53.906;27.430;2023-06-10T09:16:56;4.3;4.3;3.3
74426;PMS7003;62859;53.906;27.430;2023-06-10T09:22:10;4.7;4.7;3.3
74426;PMS7003;62859;53.906;27.430;2023-06-10T09:27:01;3.7;2.7;2.3
74426;PMS7003;62859;53.906;27.430;2023-06-10T09:32:26;4.3;4;2.8
74426;PMS7003;62859;53.906;27.430;2023-06-10T09:37:12;4.7;4;3
74426;PMS7003;62859;53.906;27.430;2023-06-10T09:42:15;4;3;2.7
74426;PMS7003;62859;53.906;27.430;2023-06-10T09:46:40;2.3;2.3;2
74426;PMS7003;62859;53.906;27.430;2023-06-10T09:52:28;4;3.5;2.8
74426;PMS7003;62859;53.906;27.430;2023-06-10T09:57:14;4.3;4.3;3
74426;PMS7003;62859;53.906;27.430;2023-06-10T10:02:09;4;3;2.3
74426;PMS7003;62859;53.906;27.430;2023-06-10T10:06:52;4;3;2.3
74426;PMS7003;62859;53.906;27.430;2023-06-10T10:12:24;3.5;3.3;2.8
74426;PMS7003;62859;53.906;27.430;2023-06-10T10:17:13;5.3;5;3.3
74426;PMS7003;62859;53.906;27.430;2023-06-10T10:21:53;3;3;2.3
74426;PMS7003;62859;53.906;27.430;2023-06-10T10:26:40;3.5;3.3;3
74426;PMS7003;62859;53.906;27.430;2023-06-10T10:32:32;4.7;4.3;2.7
74426;PMS7003;62859;53.906;27.430;2023-06-10T10:37:00;2.7;2.7;2
74426;PMS7003;62859;53.906;27.430;2023-06-10T10:42:12;2.7;2;1.3
74426;PMS7003;62859;53.906;27.430;2023-06-10T10:46:48;3;2.8;2
74426;PMS7003;62859;53.906;27.430;2023-06-10T10:52:11;3.7;3.7;2.3
74426;PMS7003;62859;53.906;27.430;2023-06-10T10:57:11;3.7;3;2.3
74426;PMS7003;62859;53.906;27.430;2023-06-10T11:02:32;5.3;4.7;3.7
74426;PMS7003;62859;53.906;27.430;2023-06-10T11:06:40;3.5;2.3;2
74426;PMS7003;62859;53.906;27.430;2023-06-10T11:12:08;4;3;2
74426;PMS7003;62859;53.906;27.430;2023-06-10T11:17:18;2.3;2.3;2
74426;PMS7003;62859;53.906;27.430;2023-06-10T11:22:28;4.3;3.7;3
74426;PMS7003;62859;53.906;27.430;2023-06-10T11:27:16;4.5;3;2
74426;PMS7003;62859;53.906;27.430;2023-06-10T11:32:14;3.3;2.7;1.7
74426;PMS7003;62859;53.906;27.430;2023-06-10T11:37:12;3.3;3.3;2.7
74426;PMS7003;62859;53.906;27.430;2023-06-10T11:42:28;4;3.3;2.3
74426;PMS7003;62859;53.906;27.430;2023-06-10T11:46:58;3.3;2.8;2.3
74426;PMS7003;62859;53.906;27.430;2023-06-10T11:52:04;4;2.7;2
74426;PMS7003;62859;53.906;27.430;2023-06-10T11:57:12;3.3;2.7;1.7
74426;PMS7003;62859;53.906;27.430;2023-06-10T12:02:26;4;3;2.3
74426;PMS7003;62859;53.906;27.430;2023-06-10T12:06:56;3.5;3.3;2.3
74426;PMS7003;62859;53.906;27.430;2023-06-10T12:11:42;3.7;3;2
74426;PMS7003;62859;53.906;27.430;2023-06-10T12:16:47;3;2.7;2
74426;PMS7003;62859;53.906;27.430;2023-06-10T12:22:26;3.3;3.3;2.5
74426;PMS7003;62859;53.906;27.430;2023-06-10T12:27:06;3.3;2.7;1.7
74426;PMS7003;62859;53.906;27.430;2023-06-10T12:32:10;4.3;4;3
74426;PMS7003;62859;53.906;27.430;2023-06-10T12:36:52;4.3;3.3;2.3
74426;PMS7003;62859;53.906;27.430;2023-06-10T12:42:24;3.3;2.5;2
74426;PMS7003;62859;53.906;27.430;2023-06-10T12:46:40;3.7;3;2
74426;PMS7003;62859;53.906;27.430;2023-06-10T12:52:08;5;3.7;2
74426;PMS7003;62859;53.906;27.430;2023-06-10T12:57:10;2.7;2.3;1.7
74426;PMS7003;62859;53.906;27.430;2023-06-10T13:02:26;4;2.8;1.8
74426;PMS7003;62859;53.906;27.430;2023-06-10T13:07:10;4;3.3;2.3
74426;PMS7003;62859;53.906;27.430;2023-06-10T13:12:12;3.7;2.7;1.7
74426;PMS7003;62859;53.906;27.430;2023-06-10T13:17:08;4.3;4.3;3
74426;PMS7003;62859;53.906;27.430;2023-06-10T13:22:24;4.8;3.5;3
74426;PMS7003;62859;53.906;27.430;2023-06-10T13:27:26;4;3.7;2
74426;PMS7003;62859;53.906;27.430;2023-06-10T13:32:14;3.7;3.3;2.3
74426;PMS7003;62859;53.906;27.430;2023-06-10T13:37:12;4;4;3.3
74426;PMS7003;62859;53.906;27.430;2023-06-10T13:42:26;4;3.3;2.8
74426;PMS7003;62859;53.906;27.430;2023-06-10T13:46:40;4.3;4;2.7
74426;PMS7003;62859;53.906;27.430;2023-06-10T13:51:42;3;3;2
74426;PMS7003;62859;53.906;27.430;2023-06-10T13:57:12;2.7;2.7;2
74426;PMS7003;62859;53.906;27.430;2023-06-10T14:02:28;4.5;2.8;1.8
74426;PMS7003;62859;53.906;27.430;2023-06-10T14:06:40;5.7;4.7;3.3
74426;PMS7003;62859;53.906;27.430;2023-06-10T14:12:10;4;3.3;2.3
74426;PMS7003;62859;53.906;27.430;2023-06-10T14:17:08;4.8;4;2.3
74426;PMS7003;62859;53.906;27.430;2023-06-10T14:22:26;4;3;2.3
74426;PMS7003;62859;53.906;27.430;2023-06-10T14:26:58;3.3;3.3;2
74426;PMS7003;62859;53.906;27.430;2023-06-10T14:31:42;3.3;2.7;2
74426;PMS7003;62859;53.906;27.430;2023-06-10T14:37:10;4.3;2.5;2
74426;PMS7003;62859;53.906;27.430;2023-06-10T14:42:12;3.7;2.3;1.7
74426;PMS7003;62859;53.906;27.430;2023-06-10T14:46:58;3.7;3;2.3
74426;PMS7003;62859;53.906;27.430;2023-06-10T14:51:42;3;3;2.7
74426;PMS7003;62859;53.906;27.430;2023-06-10T14:57:12;2.3;2.3;1.5
74426;PMS7003;62859;53.906;27.430;2023-06-10T15:02:24;3.3;2.7;2.3
74426;PMS7003;62859;53.906;27.430;2023-06-10T15:06:40;3.3;3.3;2.3
74426;PMS7003;62859;53.906;27.430;2023-06-10T15:12:24;2;2;1.3
74426;PMS7003;62859;53.906;27.430;2023-06-10T15:17:10;2.3;2.3;1.3
74426;PMS7003;62859;53.906;27.430;2023-06-10T15:22:26;2.3;2.3;1.7
74426;PMS7003;62859;53.906;27.430;2023-06-10T15:26:58;1.7;1.3;1
74426;PMS7003;62859;53.906;27.430;2023-06-10T15:32:24;1.7;1.7;1
74426;PMS7003;62859;53.906;27.430;2023-06-10T15:37:10;2.8;2.5;2
74426;PMS7003;62859;53.906;27.430;2023-06-10T15:42:24;2;2;1.3
74426;PMS7003;62859;53.906;27.430;2023-06-10T15:46:52;3;3;2
74426;PMS7003;62859;53.906;27.430;2023-06-10T15:52:22;3.7;3.3;2.7
74426;PMS7003;62859;53.906;27.430;2023-06-10T15:57:08;2.3;2.3;1.8
74426;PMS7003;62859;53.906;27.430;2023-06-10T16:02:24;3.3;2.3;1.3
74426;PMS7003;62859;53.906;27.430;2023-06-10T16:06:52;2;1.3;1.3
74426;PMS7003;62859;53.906;27.430;2023-06-10T16:12:06;2.8;2;1.8
74426;PMS7003;62859;53.906;27.430;2023-06-10T16:17:10;5.3;4;3
74426;PMS7003;62859;53.906;27.430;2023-06-10T16:22:24;2.7;2;1.3
74426;PMS7003;62859;53.906;27.430;2023-06-10T16:27:26;1.3;1;0.3
74426;PMS7003;62859;53.906;27.430;2023-06-10T16:32:26;1.8;1.3;1
74426;PMS7003;62859;53.906;27.430;2023-06-10T16:37:06;1.3;1;0.7
74426;PMS7003;62859;53.906;27.430;2023-06-10T16:42:24;1.3;1;0.7
74426;PMS7003;62859;53.906;27.430;2023-06-10T16:46:52;1.7;1.3;1
74426;PMS7003;62859;53.906;27.430;2023-06-10T16:52:26;1;0.8;0
74426;PMS7003;62859;53.906;27.430;2023-06-10T16:57:12;0.7;0.7;0.7
74426;PMS7003;62859;53.906;27.430;2023-06-10T17:02:24;0.7;0.7;0.3
74426;PMS7003;62859;53.906;27.430;2023-06-10T17:06:40;2.3;1.3;1.3
74426;PMS7003;62859;53.906;27.430;2023-06-10T17:12:26;1.8;1.5;1
74426;PMS7003;62859;53.906;27.430;2023-06-10T17:17:10;1.3;1.3;1
74426;PMS7003;62859;53.906;27.430;2023-06-10T17:22:24;2;1.3;0.7
74426;PMS7003;62859;53.906;27.430;2023-06-10T17:26:40;1;0.7;0.7
74426;PMS7003;62859;53.906;27.430;2023-06-10T17:32:24;0.8;0.8;0.5
74426;PMS7003;62859;53.906;27.430;2023-06-10T17:36:42;2.7;1.3;0.7
74426;PMS7003;62859;53.906;27.430;2023-06-10T17:42:24;0.7;0.7;0.3
74426;PMS7003;62859;53.906;27.430;2023-06-10T17:46:40;1.3;1.3;0.7
74426;PMS7003;62859;53.906;27.430;2023-06-10T17:52:28;2.5;2;1.3
74426;PMS7003;62859;53.906;27.430;2023-06-10T17:57:12;1;1;0.3
74426;PMS7003;62859;53.906;27.430;2023-06-10T18:02:28;3;1.7;0.7
74426;PMS7003;62859;53.906;27.430;2023-06-10T18:06:52;1.3;0.5;0.3
74426;PMS7003;62859;53.906;27.430;2023-06-10T18:12:28;0;0;0
74426;PMS7003;62859;53.906;27.430;2023-06-10T18:17:10;0.3;0.3;0.3
74426;PMS7003;62859;53.906;27.430;2023-06-10T18:22:16;2.3;2.3;1.7
74426;PMS7003;62859;53.906;27.430;2023-06-10T18:26:52;2.3;1.8;1.5
74426;PMS7003;62859;53.906;27.430;2023-06-10T18:32:28;2.7;2;1.3
74426;PMS7003;62859;53.906;27.430;2023-06-10T18:37:10;2.7;2.3;2
74426;PMS7003;62859;53.906;27.430;2023-06-10T18:42:24;1;0.7;0.3
74426;PMS7003;62859;53.906;27.430;2023-06-10T18:46:40;1.3;0.8;0.8
74426;PMS7003;62859;53.906;27.430;2023-06-10T18:52:28;2.3;1.7;1
74426;PMS7003;62859;53.906;27.430;2023-06-10T18:57:00;2;1.7;1
74426;PMS7003;62859;53.906;27.430;2023-06-10T19:02:24;0.7;0.7;0.3
74426;PMS7003;62859;53.906;27.430;2023-06-10T19:06:40;1;1;0.8
74426;PMS7003;62859;53.906;27.430;2023-06-10T19:12:26;2;1;0.3
74426;PMS7003;62859;53.906;27.430;2023-06-10T19:17:10;0.7;0.3;0
74426;PMS7003;62859;53.906;27.430;2023-06-10T19:22:24;3.3;2;1.3
74426;PMS7003;62859;53.906;27.430;2023-06-10T19:26:52;1.5;1.5;0.5
74426;PMS7003;62859;53.906;27.430;2023-06-10T19:32:24;0.7;0.7;0.3
74426;PMS7003;62859;53.906;27.430;2023-06-10T19:37:06;1.3;1.3;1
74426;PMS7003;62859;53.906;27.430;2023-06-10T19:42:16;2;2;1.3
74426;PMS7003;62859;53.906;27.430;2023-06-10T19:47:20;1.8;1.8;1.3
74426;PMS7003;62859;53.906;27.430;2023-06-10T19:52:26;1.7;1.3;0.7
74426;PMS7003;62859;53.906;27.430;2023-06-10T19:57:12;1.7;1.7;1
74426;PMS7003;62859;53.906;27.430;2023-06-10T20:02:22;1;1;0.3
74426;PMS7003;62859;53.906;27.430;2023-06-10T20:07:20;0.7;0.7;0
74426;PMS7003;62859;53.906;27.430;2023-06-10T20:12:28;0.7;0.7;0.3
74426;PMS7003;62859;53.906;27.430;2023-06-10T20:17:06;1.3;1.3;1
74426;PMS7003;62859;53.906;27.430;2023-06-10T20:22:08;1.8;1.5;0.8
74426;PMS7003;62859;53.906;27.430;2023-06-10T20:26:40;0.7;0.7;0.3
74426;PMS7003;62859;53.906;27.430;2023-06-10T20:32:26;1.3;1.3;1
74426;PMS7003;62859;53.906;27.430;2023-06-10T20:36:58;0.7;0.7;0.3
74426;PMS7003;62859;53.906;27.430;2023-06-10T20:42:26;2.3;1.8;1.3
74426;PMS7003;62859;53.906;27.430;2023-06-10T20:47:04;1.3;1.3;0.7
74426;PMS7003;62859;53.906;27.430;2023-06-10T20:52:28;2.3;1.7;1
74426;PMS7003;62859;53.906;27.430;2023-06-10T20:57:10;0.7;0.7;0.7
74426;PMS7003;62859;53.906;27.430;2023-06-10T21:02:26;1.3;1;1
74426;PMS7003;62859;53.906;27.430;2023-06-10T21:07:20;1.7;1.7;0.3
74426;PMS7003;62859;53.906;27.430;2023-06-10T21:12:24;1;1;0.3
74426;PMS7003;62859;53.906;27.430;2023-06-10T21:17:08;1.7;1.7;1.3
74426;PMS7003;62859;53.906;27.430;2023-06-10T21:22:10;1;1;0.8
74426;PMS7003;62859;53.906;27.430;2023-06-10T21:26:40;1.7;1.3;1.3
74426;PMS7003;62859;53.906;27.430;2023-06-10T21:32:26;2.3;1.7;1
74426;PMS7003;62859;53.906;27.430;2023-06-10T21:36:42;0.7;0.7;0.7
74426;PMS7003;62859;53.906;27.430;2023-06-10T21:42:24;0.8;0.8;0.5
74426;PMS7003;62859;53.906;27.430;2023-06-10T21:47:02;1.3;1.3;1
74426;PMS7003;62859;53.906;27.430;2023-06-10T21:52:22;1.3;1;1
74426;PMS7003;62859;53.906;27.430;2023-06-10T21:56:58;0.8;0.8;0.3
74426;PMS7003;62859;53.906;27.430;2023-06-10T22:02:22;2.3;2;1
74426;PMS7003;62859;53.906;27.430;2023-06-10T22:06:40;1.7;1;0.3
74426;PMS7003;62859;53.906;27.430;2023-06-10T22:12:24;0.7;0.7;0
74426;PMS7003;62859;53.906;27.430;2023-06-10T22:16:52;0.5;0.5;0.5
74426;PMS7003;62859;53.906;27.430;2023-06-10T22:22:22;1;1;0.7
74426;PMS7003;62859;53.906;27.430;2023-06-10T22:26:40;1.3;1;0.7
74426;PMS7003;62859;53.906;27.430;2023-06-10T22:32:24;0.7;0.7;0.7
74426;PMS7003;62859;53.906;27.430;2023-06-10T22:37:08;0.8;0.8;0.3
74426;PMS7003;62859;53.906;27.430;2023-06-10T22:42:24;1;1;1
74426;PMS7003;62859;53.906;27.430;2023-06-10T22:46:40;1;1;0.3
74426;PMS7003;62859;53.906;27.430;2023-06-10T22:52:22;1;1;0.7
74426;PMS7003;62859;53.906;27.430;2023-06-10T22:57:08;0.8;0.8;0.3
74426;PMS7003;62859;53.906;27.430;2023-06-10T23:02:24;1.7;1.7;0.7
74426;PMS7003;62859;53.906;27.430;2023-06-10T23:06:40;1.3;1;0.3
74426;PMS7003;62859;53.906;27.430;2023-06-10T23:12:22;0.3;0.3;0.3
74426;PMS7003;62859;53.906;27.430;2023-06-10T23:17:08;1;0.8;0.5
74426;PMS7003;62859;53.906;27.430;2023-06-10T23:22:20;2;0.7;0.3
74426;PMS7003;62859;53.906;27.430;2023-06-10T23:26:40;2;1.7;1
74426;PMS7003;62859;53.906;27.430;2023-06-10T23:32:20;1.7;1.7;1.3
74426;PMS7003;62859;53.906;27.430;2023-06-10T23:37:06;2.3;1.8;1.3
74426;PMS7003;62859;53.906;27.430;2023-06-10T23:42:20;2.3;1.3;1
74426;PMS7003;62859;53.906;27.430;2023-06-10T23:46:40;1.7;1.7;1
74426;PMS7003;62859;53.906;27.430;2023-06-10T23:52:16;1.5;1.5;1
74426;PMS7003;62859;53.906;27.430;2023-06-10T23:57:22;1.7;1.3;0.7
